Terminal Aerodrome Forecast
Issued by NWS Corpus Christi, TX

Home | Current Version | Previous Version | Text Only | Print | Product List | Glossary On
Versions: 1 2 3 4 5 6 7 8 9 10 11 12 13 14
000
FTUS44 KCRP 251729
TAFCRP
TAF
KCRP 251729Z 2518/2618 16018G22KT P6SM SKC
     FM252000 15023G29KT P6SM FEW035 BKN250
     FM260300 15013G20KT P6SM BKN015
     FM260800 17016KT P6SM OVC015
     FM261600 16015G22KT P6SM SCT030=

USA.gov is the U.S. government's official web portal to all federal, state and local government web resources and services.